Terminal Aerodrome Forecast
Issued by NWS Cleveland, OH

Home | Current Version | Previous Version | Text Only | Print | Product List | Glossary On
Versions: 1 2 3 4 5 6 7 8 9 10 11 12 13 14
000
FTUS41 KCLE 280500
TAFTOL
TAF
KTOL 280538Z 2806/2906 28012KT P6SM SCT006 OVC018
     FM281500 31008KT P6SM OVC025
     FM281900 29008KT P6SM BKN250=

USA.gov is the U.S. government's official web portal to all federal, state and local government web resources and services.